createdAt,value
2018-03-11T00:01:07.881Z,96.70
2018-03-11T00:03:35.334Z,96.70
2018-03-11T00:06:02.785Z,96.70
2018-03-11T00:08:30.238Z,96.80
2018-03-11T00:10:57.694Z,96.90
2018-03-11T00:13:25.230Z,96.90
2018-03-11T00:15:52.662Z,96.90
2018-03-11T00:18:20.158Z,97.00
2018-03-11T00:20:47.603Z,97.00
2018-03-11T00:23:15.074Z,97.00
2018-03-11T00:25:42.519Z,97.00
2018-03-11T00:28:09.995Z,97.00
2018-03-11T00:30:38.250Z,97.00
2018-03-11T00:33:05.974Z,97.00
2018-03-11T00:35:34.217Z,97.00
2018-03-11T00:38:01.677Z,97.00
2018-03-11T00:40:29.139Z,97.00
2018-03-11T00:42:56.574Z,96.90
2018-03-11T00:45:24.031Z,96.90
2018-03-11T00:47:51.518Z,96.90
2018-03-11T00:50:18.995Z,97.00
2018-03-11T00:52:47.222Z,97.00
2018-03-11T00:55:15.077Z,97.00
2018-03-11T00:57:42.538Z,97.00
2018-03-11T01:00:10.355Z,97.00
2018-03-11T01:02:37.817Z,97.00
2018-03-11T01:05:06.030Z,97.10
2018-03-11T01:07:33.490Z,97.10
2018-03-11T01:10:00.959Z,97.00
2018-03-11T01:12:28.406Z,97.10
2018-03-11T01:14:55.867Z,97.20
2018-03-11T01:17:23.319Z,97.30
2018-03-11T01:19:50.874Z,97.20
2018-03-11T01:22:18.347Z,97.20
2018-03-11T01:24:45.823Z,97.10
2018-03-11T01:27:13.292Z,97.20
2018-03-11T01:29:40.755Z,97.20
2018-03-11T01:32:08.190Z,97.10
2018-03-11T01:34:35.647Z,97.00
2018-03-11T01:37:03.106Z,97.00
2018-03-11T01:39:30.597Z,96.90
2018-03-11T01:41:58.066Z,96.80
2018-03-11T01:44:25.517Z,96.80
2018-03-11T01:46:52.960Z,96.80
2018-03-11T01:49:20.399Z,96.90
2018-03-11T01:51:47.874Z,96.80
2018-03-11T01:54:15.323Z,96.80
2018-03-11T01:56:42.762Z,96.90
2018-03-11T01:59:10.242Z,97.00
2018-03-11T02:01:37.686Z,97.00
2018-03-11T02:04:05.123Z,97.00
2018-03-11T02:06:32.584Z,97.00
2018-03-11T02:09:00.047Z,97.00
2018-03-11T02:11:27.512Z,97.00
2018-03-11T02:13:54.965Z,97.00
2018-03-11T02:16:22.410Z,97.00
2018-03-11T02:18:49.887Z,97.10
2018-03-11T02:21:17.333Z,97.10
2018-03-11T02:23:44.811Z,97.20
2018-03-11T02:26:12.282Z,97.30
2018-03-11T02:28:40.488Z,97.20
2018-03-11T02:31:09.608Z,97.20
2018-03-11T02:33:37.085Z,97.20
2018-03-11T02:36:04.541Z,97.20
2018-03-11T02:38:31.993Z,97.20
2018-03-11T02:40:59.551Z,97.10
2018-03-11T02:43:27.008Z,97.10
2018-03-11T02:45:54.442Z,97.20
2018-03-11T02:48:21.915Z,97.20
2018-03-11T02:50:49.372Z,97.50
2018-03-11T02:53:16.847Z,97.20
2018-03-11T02:55:45.061Z,97.40
2018-03-11T02:58:13.322Z,97.40
2018-03-11T03:00:40.776Z,97.30
2018-03-11T03:03:08.298Z,97.40
2018-03-11T03:05:35.751Z,97.40
2018-03-11T03:08:03.322Z,97.40
2018-03-11T03:10:30.786Z,97.50
2018-03-11T03:12:58.255Z,97.60
2018-03-11T03:15:25.698Z,97.60
2018-03-11T03:17:53.168Z,97.50
2018-03-11T03:20:20.754Z,97.60
2018-03-11T03:22:48.203Z,97.60
2018-03-11T03:25:17.168Z,97.60
2018-03-11T03:27:44.623Z,97.60
2018-03-11T03:30:12.087Z,97.60
2018-03-11T03:32:39.545Z,97.60
2018-03-11T03:35:07.019Z,97.50
2018-03-11T03:37:39.385Z,97.60
2018-03-11T03:40:06.875Z,97.60
2018-03-11T03:42:35.126Z,97.60
2018-03-11T03:45:02.610Z,97.60
2018-03-11T03:47:30.085Z,97.70
2018-03-11T03:49:57.566Z,97.70
2018-03-11T03:52:25.054Z,97.70
2018-03-11T03:54:52.519Z,97.70
2018-03-11T03:57:19.978Z,97.80
2018-03-11T03:59:48.238Z,97.80
2018-03-11T04:02:15.704Z,97.80
2018-03-11T04:04:43.186Z,97.80
2018-03-11T04:07:10.639Z,97.80
2018-03-11T04:09:38.895Z,97.80
2018-03-11T04:12:06.353Z,97.80
2018-03-11T04:14:33.818Z,97.80
2018-03-11T04:17:01.284Z,97.70
2018-03-11T04:19:29.541Z,97.70
2018-03-11T04:21:57.018Z,97.70
2018-03-11T04:24:24.526Z,97.70
2018-03-11T04:26:51.990Z,97.70
2018-03-11T04:29:19.485Z,97.70
2018-03-11T04:31:47.718Z,97.90
2018-03-11T04:34:15.174Z,97.80
2018-03-11T04:36:42.671Z,97.80
2018-03-11T04:39:10.915Z,97.80
2018-03-11T04:41:38.398Z,97.80
2018-03-11T04:44:05.855Z,97.90
2018-03-11T04:46:33.418Z,97.80
2018-03-11T04:49:01.691Z,97.80
2018-03-11T04:51:29.146Z,97.80
2018-03-11T04:53:56.597Z,97.90
2018-03-11T04:56:24.118Z,97.90
2018-03-11T04:58:51.573Z,97.90
2018-03-11T05:01:19.054Z,97.80
2018-03-11T05:03:46.514Z,97.80
2018-03-11T05:06:14.266Z,97.90
2018-03-11T05:08:41.738Z,97.90
2018-03-11T05:11:09.218Z,97.90
2018-03-11T05:13:36.699Z,97.90
2018-03-11T05:16:04.191Z,97.90
2018-03-11T05:18:31.759Z,97.90
2018-03-11T05:20:59.334Z,97.90
2018-03-11T05:23:27.607Z,97.90
2018-03-11T05:25:55.097Z,97.90
2018-03-11T05:28:22.727Z,97.90
2018-03-11T05:30:50.207Z,97.90
2018-03-11T05:33:17.715Z,97.80
2018-03-11T05:35:45.207Z,97.80
2018-03-11T05:38:12.672Z,97.90
2018-03-11T05:40:41.038Z,97.90
2018-03-11T05:43:08.545Z,98.00
2018-03-11T05:45:36.019Z,98.00
2018-03-11T05:48:03.515Z,98.00
2018-03-11T05:50:30.982Z,98.00
2018-03-11T05:52:59.337Z,97.90
2018-03-11T05:55:26.894Z,97.90
2018-03-11T05:57:54.463Z,97.90
2018-03-11T06:00:21.922Z,97.90
2018-03-11T06:02:49.406Z,97.90
2018-03-11T06:05:16.873Z,97.90
2018-03-11T06:07:44.337Z,97.90
2018-03-11T06:10:11.805Z,97.90
2018-03-11T06:12:39.257Z,98.00
2018-03-11T06:15:06.818Z,98.00
2018-03-11T06:17:34.277Z,98.00
2018-03-11T06:20:01.780Z,98.00
2018-03-11T06:22:29.259Z,98.00
2018-03-11T06:24:56.722Z,98.00
2018-03-11T06:27:24.206Z,97.90
2018-03-11T06:29:51.664Z,97.90
2018-03-11T06:32:19.165Z,98.10
2018-03-11T06:34:46.646Z,98.10
2018-03-11T06:37:14.914Z,97.90
2018-03-11T06:39:43.197Z,97.90
2018-03-11T06:42:11.436Z,98.00
2018-03-11T06:44:38.898Z,98.00
2018-03-11T06:47:06.457Z,98.00
2018-03-11T06:49:33.969Z,98.10
2018-03-11T06:52:01.406Z,98.10
2018-03-11T06:54:29.622Z,98.00
2018-03-11T06:56:57.106Z,98.00
2018-03-11T06:59:24.568Z,98.10
2018-03-11T07:01:52.042Z,98.10
2018-03-11T07:04:20.403Z,98.00
2018-03-11T07:06:48.005Z,98.00
2018-03-11T07:09:15.474Z,98.00
2018-03-11T07:11:42.955Z,98.00
2018-03-11T07:14:10.443Z,98.00
2018-03-11T07:16:37.950Z,98.00
2018-03-11T07:19:05.422Z,98.00
2018-03-11T07:21:32.868Z,98.00
2018-03-11T07:24:00.321Z,98.10
2018-03-11T07:26:27.809Z,98.10
2018-03-11T07:28:55.275Z,98.10
2018-03-11T07:31:22.758Z,98.10
2018-03-11T07:33:50.978Z,98.10
2018-03-11T07:36:18.497Z,98.10
2018-03-11T07:38:45.962Z,98.10
2018-03-11T07:41:13.493Z,98.10
2018-03-11T07:43:41.010Z,98.20
2018-03-11T07:46:08.506Z,98.20
2018-03-11T07:48:35.978Z,98.30
2018-03-11T07:51:04.202Z,98.30
2018-03-11T07:53:32.538Z,98.30
2018-03-11T07:55:59.992Z,98.30
2018-03-11T07:58:27.625Z,98.30
2018-03-11T08:00:56.070Z,98.50
2018-03-11T08:03:23.582Z,98.50
2018-03-11T08:05:51.237Z,98.50
2018-03-11T08:08:18.895Z,98.50
2018-03-11T08:10:46.557Z,98.60
2018-03-11T08:13:14.219Z,98.60
2018-03-11T08:15:41.702Z,98.60
2018-03-11T08:18:09.185Z,98.70
2018-03-11T08:20:36.646Z,98.70
2018-03-11T08:23:04.126Z,98.70
2018-03-11T08:25:31.702Z,98.30
2018-03-11T08:27:59.181Z,98.20
2018-03-11T08:30:26.645Z,98.10
2018-03-11T08:32:54.130Z,98.10
2018-03-11T08:35:21.595Z,98.10
2018-03-11T08:37:49.200Z,98.30
2018-03-11T08:40:16.675Z,98.10
2018-03-11T08:42:44.185Z,98.30
2018-03-11T08:45:12.437Z,97.50
2018-03-11T08:47:39.967Z,97.50
2018-03-11T08:50:07.422Z,97.30
2018-03-11T08:52:34.915Z,97.10
2018-03-11T08:55:02.383Z,97.20
2018-03-11T08:57:30.628Z,97.10
2018-03-11T08:59:58.105Z,97.10
2018-03-11T09:02:25.566Z,97.20
2018-03-11T09:04:53.042Z,97.20
2018-03-11T09:07:20.554Z,97.20
2018-03-11T09:09:48.038Z,97.10
2018-03-11T09:12:15.569Z,96.80
2018-03-11T09:14:43.066Z,96.30
2018-03-11T09:17:10.526Z,95.80
2018-03-11T09:19:38.035Z,95.50
2018-03-11T09:22:05.529Z,95.00
2018-03-11T09:24:33.035Z,94.90
2018-03-11T09:27:00.499Z,94.80
2018-03-11T09:29:27.971Z,94.70
2018-03-11T09:31:56.214Z,94.20
2018-03-11T09:34:24.463Z,93.80
2018-03-11T09:36:53.062Z,93.70
2018-03-11T09:39:20.517Z,93.60
2018-03-11T09:41:48.012Z,93.30
2018-03-11T09:44:15.718Z,92.80
2018-03-11T09:46:43.196Z,92.80
2018-03-11T09:49:11.425Z,92.30
2018-03-11T09:51:38.905Z,92.40
2018-03-11T09:54:06.382Z,92.20
2018-03-11T09:56:33.834Z,91.60
2018-03-11T09:59:01.331Z,91.80
2018-03-11T10:01:28.817Z,91.60
2018-03-11T10:03:56.310Z,91.10
2018-03-11T10:06:23.814Z,91.20
2018-03-11T10:08:52.038Z,90.70
2018-03-11T10:11:19.527Z,90.70
2018-03-11T10:13:47.003Z,90.00
2018-03-11T10:16:14.527Z,90.10
2018-03-11T10:18:41.978Z,90.00
2018-03-11T10:21:09.439Z,89.80
2018-03-11T10:23:36.938Z,89.50
2018-03-11T10:26:04.513Z,89.50
2018-03-11T10:28:31.980Z,89.30
2018-03-11T10:30:59.461Z,88.40
2018-03-11T10:33:26.942Z,88.70
2018-03-11T10:35:54.438Z,87.30
2018-03-11T10:38:22.682Z,87.90
2018-03-11T10:40:50.148Z,87.90
2018-03-11T10:43:17.638Z,86.70
2018-03-11T10:45:45.889Z,85.60
2018-03-11T10:48:13.338Z,85.60
2018-03-11T10:50:40.803Z,86.00
2018-03-11T10:53:08.342Z,85.40
2018-03-11T10:55:35.896Z,84.70
2018-03-11T10:58:03.373Z,83.90
2018-03-11T11:00:36.554Z,83.30
2018-03-11T11:03:09.615Z,80.80
2018-03-11T11:05:37.172Z,81.30
2018-03-11T11:08:04.634Z,79.60
2018-03-11T11:10:32.119Z,78.80
2018-03-11T11:12:59.574Z,75.80
2018-03-11T11:15:27.058Z,74.90
2018-03-11T11:17:54.534Z,73.50
2018-03-11T11:20:22.787Z,71.80
2018-03-11T11:22:50.243Z,71.70
2018-03-11T11:25:17.723Z,70.80
2018-03-11T11:27:45.979Z,65.30
2018-03-11T11:30:13.542Z,65.10
2018-03-11T11:32:41.051Z,66.00
2018-03-11T11:35:08.523Z,64.50
2018-03-11T11:37:36.062Z,65.90
2018-03-11T11:40:04.239Z,64.40
2018-03-11T11:42:31.746Z,64.10
2018-03-11T11:44:59.233Z,64.60
2018-03-11T11:47:27.497Z,62.70
2018-03-11T11:49:54.943Z,62.70
2018-03-11T11:52:22.437Z,64.10
2018-03-11T11:54:49.905Z,64.50
2018-03-11T11:57:17.387Z,64.90
2018-03-11T11:59:44.967Z,65.20
2018-03-11T12:02:12.635Z,66.50
2018-03-11T12:04:40.875Z,67.20
2018-03-11T12:07:08.407Z,67.20
2018-03-11T12:09:35.874Z,67.90
2018-03-11T12:12:03.353Z,68.90
2018-03-11T12:14:30.807Z,70.20
2018-03-11T12:16:58.442Z,70.60
2018-03-11T12:19:25.911Z,70.70
2018-03-11T12:21:53.385Z,71.80
2018-03-11T12:24:20.870Z,71.40
2018-03-11T12:26:48.350Z,70.40
2018-03-11T12:29:16.569Z,67.30
2018-03-11T12:31:44.108Z,67.30
2018-03-11T12:34:11.600Z,65.90
2018-03-11T12:36:39.101Z,65.60
2018-03-11T12:39:07.363Z,63.80
2018-03-11T12:41:34.826Z,63.70
2018-03-11T12:44:02.370Z,62.90
2018-03-11T12:46:29.833Z,62.60
2018-03-11T12:48:57.318Z,60.80
2018-03-11T12:51:24.810Z,59.80
2018-03-11T12:53:53.048Z,60.10
2018-03-11T12:56:20.552Z,60.00
2018-03-11T12:58:48.003Z,60.50
2018-03-11T13:01:16.475Z,61.10
2018-03-11T13:03:43.984Z,61.00
2018-03-11T13:06:11.439Z,61.80
2018-03-11T13:08:39.005Z,61.80
2018-03-11T13:11:06.623Z,61.20
2018-03-11T13:13:34.970Z,62.50
2018-03-11T13:16:02.449Z,62.50
2018-03-11T13:18:29.905Z,63.60
2018-03-11T13:21:07.091Z,64.50
2018-03-11T13:23:34.538Z,64.80
2018-03-11T13:26:02.014Z,65.70
2018-03-11T13:28:42.166Z,66.30
2018-03-11T13:31:10.410Z,67.70
2018-03-11T13:33:49.681Z,67.10
2018-03-11T13:36:17.938Z,68.10
2018-03-11T13:38:57.281Z,68.10
2018-03-11T13:41:24.746Z,68.10
2018-03-11T13:43:52.198Z,67.90
2018-03-11T13:46:31.551Z,68.00
2018-03-11T13:48:58.990Z,67.10
2018-03-11T13:51:39.450Z,67.60
2018-03-11T13:54:07.009Z,67.60
2018-03-11T13:56:34.669Z,67.50
2018-03-11T13:59:02.953Z,68.40
2018-03-11T14:01:30.458Z,67.70
2018-03-11T14:03:57.944Z,68.00
2018-03-11T14:06:25.394Z,68.60
2018-03-11T14:08:52.938Z,69.20
2018-03-11T14:11:20.412Z,69.40
2018-03-11T14:13:47.926Z,69.70
2018-03-11T14:16:15.405Z,69.80
2018-03-11T14:18:42.915Z,70.20
2018-03-11T14:21:10.425Z,70.60
2018-03-11T14:23:37.881Z,70.60
2018-03-11T14:26:06.134Z,71.80
2018-03-11T14:28:33.590Z,71.70
2018-03-11T14:31:01.066Z,71.90
2018-03-11T14:33:28.568Z,72.10
2018-03-11T14:35:56.866Z,71.80
2018-03-11T14:38:24.494Z,71.80
2018-03-11T14:40:51.977Z,71.60
2018-03-11T14:43:20.217Z,72.60
2018-03-11T14:45:47.827Z,73.20
2018-03-11T14:48:16.066Z,75.10
2018-03-11T14:50:43.581Z,74.40
2018-03-11T14:53:11.074Z,75.10
2018-03-11T14:55:38.654Z,75.70
2018-03-11T14:58:06.135Z,75.70
2018-03-11T15:00:33.760Z,76.50
2018-03-11T15:03:01.368Z,77.10
2018-03-11T15:05:28.801Z,77.40
2018-03-11T15:07:57.210Z,77.80
2018-03-11T15:10:24.682Z,77.90
2018-03-11T15:12:52.174Z,78.00
2018-03-11T15:15:19.741Z,77.80
2018-03-11T15:17:47.201Z,78.10
2018-03-11T15:20:14.776Z,78.10
2018-03-11T15:22:42.218Z,77.80
2018-03-11T15:25:09.704Z,77.80
2018-03-11T15:27:37.966Z,77.80
2018-03-11T15:30:05.422Z,77.80
2018-03-11T15:32:32.914Z,77.80
2018-03-11T15:35:01.126Z,78.50
2018-03-11T15:37:28.617Z,77.70
2018-03-11T15:39:56.838Z,77.80
2018-03-11T15:42:24.336Z,77.80
2018-03-11T15:44:51.790Z,77.60
2018-03-11T15:47:19.265Z,77.40
2018-03-11T15:49:47.512Z,77.70
2018-03-11T15:52:14.970Z,77.60
2018-03-11T15:54:42.447Z,77.70
2018-03-11T15:57:09.909Z,77.70
2018-03-11T15:59:38.174Z,78.10
2018-03-11T16:02:06.409Z,78.20
2018-03-11T16:04:33.891Z,78.80
2018-03-11T16:07:01.378Z,78.10
2018-03-11T16:09:29.726Z,77.90
2018-03-11T16:11:57.241Z,77.90
2018-03-11T16:14:24.688Z,77.90
2018-03-11T16:16:52.973Z,78.10
2018-03-11T16:19:21.200Z,78.30
2018-03-11T16:21:48.682Z,78.30
2018-03-11T16:24:28.279Z,78.50
2018-03-11T16:26:44.563Z,78.50
2018-03-11T16:29:12.022Z,78.60
2018-03-11T16:31:39.518Z,78.90
2018-03-11T16:34:06.975Z,79.00
2018-03-11T16:36:34.450Z,79.40
2018-03-11T16:39:01.894Z,79.60
2018-03-11T16:41:29.567Z,79.70
2018-03-11T16:43:57.030Z,79.70
2018-03-11T16:46:24.682Z,79.90
2018-03-11T16:48:52.159Z,80.10
2018-03-11T16:51:20.521Z,80.20
2018-03-11T16:53:47.977Z,80.20
2018-03-11T16:56:15.438Z,80.30
2018-03-11T16:58:44.523Z,80.80
2018-03-11T17:01:11.990Z,80.70
2018-03-11T17:03:40.290Z,80.90
2018-03-11T17:06:07.780Z,81.00
2018-03-11T17:08:36.003Z,81.60
2018-03-11T17:11:03.466Z,81.60
2018-03-11T17:13:31.735Z,82.10
2018-03-11T17:15:59.223Z,82.10
2018-03-11T17:18:26.676Z,82.30
2018-03-11T17:20:54.175Z,82.50
2018-03-11T17:23:21.630Z,82.60
2018-03-11T17:25:49.127Z,82.60
2018-03-11T17:28:16.583Z,82.90
2018-03-11T17:30:44.067Z,83.00
2018-03-11T17:33:12.382Z,83.30
2018-03-11T17:35:39.870Z,83.20
2018-03-11T17:38:07.346Z,83.50
2018-03-11T17:40:34.834Z,83.60
2018-03-11T17:43:03.079Z,84.00
2018-03-11T17:45:30.626Z,84.00
2018-03-11T17:47:59.639Z,84.40
2018-03-11T17:50:28.061Z,84.70
2018-03-11T17:52:56.238Z,84.80
2018-03-11T17:55:23.841Z,84.80
2018-03-11T17:57:51.394Z,85.00
2018-03-11T18:00:18.862Z,85.20
2018-03-11T18:02:46.446Z,85.50
2018-03-11T18:05:13.925Z,85.70
2018-03-11T18:07:41.380Z,85.90
2018-03-11T18:10:08.889Z,85.90
2018-03-11T18:12:36.417Z,86.10
2018-03-11T18:15:04.630Z,86.50
2018-03-11T18:17:32.858Z,87.20
2018-03-11T18:20:00.343Z,86.80
2018-03-11T18:22:27.810Z,86.90
2018-03-11T18:24:55.294Z,87.00
2018-03-11T18:27:23.543Z,87.50
2018-03-11T18:29:51.071Z,87.40
2018-03-11T18:32:18.566Z,87.60
2018-03-11T18:34:46.067Z,87.60
2018-03-11T18:37:13.526Z,87.90
2018-03-11T18:39:41.015Z,88.30
2018-03-11T18:42:08.503Z,88.40
2018-03-11T18:44:36.015Z,88.40
2018-03-11T18:47:03.466Z,88.50
2018-03-11T18:49:30.934Z,88.60
2018-03-11T18:51:58.416Z,88.70
2018-03-11T18:54:25.904Z,88.90
2018-03-11T18:56:53.411Z,88.90
2018-03-11T18:59:20.880Z,88.90
2018-03-11T19:01:48.401Z,89.10
2018-03-11T19:04:15.886Z,89.20
2018-03-11T19:06:43.371Z,89.30
2018-03-11T19:09:10.848Z,89.40
2018-03-11T19:11:38.335Z,89.50
2018-03-11T19:14:05.829Z,89.50
2018-03-11T19:16:33.308Z,89.40
2018-03-11T19:19:01.587Z,89.70
2018-03-11T19:21:29.071Z,89.60
2018-03-11T19:23:57.328Z,89.80
2018-03-11T19:26:24.996Z,89.70
2018-03-11T19:28:53.258Z,90.00
2018-03-11T19:31:20.718Z,90.00
2018-03-11T19:33:48.181Z,90.00
2018-03-11T19:36:15.660Z,90.00
2018-03-11T19:38:43.903Z,89.90
2018-03-11T19:41:12.240Z,89.90
2018-03-11T19:43:39.738Z,90.00
2018-03-11T19:46:07.241Z,90.10
2018-03-11T19:48:34.741Z,90.10
2018-03-11T19:51:02.279Z,90.20
2018-03-11T19:53:29.782Z,90.10
2018-03-11T19:55:57.319Z,90.20
2018-03-11T19:58:24.743Z,90.20
2018-03-11T20:00:52.202Z,90.30
2018-03-11T20:03:19.702Z,90.40
2018-03-11T20:05:47.636Z,90.40
2018-03-11T20:08:15.101Z,90.40
2018-03-11T20:10:42.586Z,90.50
2018-03-11T20:13:10.051Z,90.50
2018-03-11T20:15:37.547Z,90.50
2018-03-11T20:18:05.778Z,90.50
2018-03-11T20:20:33.271Z,90.50
2018-03-11T20:23:01.599Z,90.50
2018-03-11T20:25:29.221Z,90.50
2018-03-11T20:27:57.606Z,90.70
2018-03-11T20:30:25.114Z,90.60
2018-03-11T20:32:52.676Z,90.80
2018-03-11T20:35:20.210Z,90.70
2018-03-11T20:37:47.707Z,90.70
2018-03-11T20:40:15.201Z,90.70
2018-03-11T20:42:42.687Z,90.70
2018-03-11T20:45:10.184Z,90.80
2018-03-11T20:47:37.678Z,90.80
2018-03-11T20:50:05.191Z,90.90
2018-03-11T20:52:32.654Z,91.00
2018-03-11T20:55:00.183Z,91.10
2018-03-11T20:57:27.724Z,91.30
2018-03-11T20:59:55.208Z,91.40
2018-03-11T21:02:22.923Z,91.60
2018-03-11T21:04:50.489Z,91.70
2018-03-11T21:07:18.850Z,92.30
2018-03-11T21:09:46.385Z,92.30
2018-03-11T21:12:13.893Z,92.60
2018-03-11T21:14:41.372Z,92.70
2018-03-11T21:17:08.852Z,92.80
2018-03-11T21:19:36.322Z,93.00
2018-03-11T21:22:03.824Z,93.40
2018-03-11T21:24:31.357Z,93.60
2018-03-11T21:26:58.835Z,93.80
2018-03-11T21:29:27.123Z,94.20
2018-03-11T21:31:55.380Z,94.30
2018-03-11T21:34:27.622Z,94.30
2018-03-11T21:36:55.113Z,94.40
2018-03-11T21:39:22.587Z,94.60
2018-03-11T21:41:50.849Z,95.00
2018-03-11T21:44:18.345Z,94.90
2018-03-11T21:46:45.970Z,95.10
2018-03-11T21:49:13.500Z,95.00
2018-03-11T21:51:40.978Z,95.10
2018-03-11T21:54:08.505Z,95.20
2018-03-11T21:56:36.014Z,95.40
2018-03-11T21:59:03.510Z,95.40
2018-03-11T22:01:30.996Z,95.50
2018-03-11T22:03:59.300Z,95.60
2018-03-11T22:06:26.903Z,95.60
2018-03-11T22:08:54.365Z,95.60
2018-03-11T22:11:21.840Z,96.10
2018-03-11T22:13:49.296Z,96.00
2018-03-11T22:16:17.670Z,96.10
2018-03-11T22:18:45.167Z,96.10
2018-03-11T22:21:12.650Z,96.20
2018-03-11T22:23:40.920Z,96.30
2018-03-11T22:26:08.456Z,96.30
2018-03-11T22:28:35.918Z,96.30
2018-03-11T22:31:03.398Z,96.40
2018-03-11T22:33:30.859Z,96.60
2018-03-11T22:35:58.351Z,96.60
2018-03-11T22:38:25.806Z,96.60
2018-03-11T22:40:53.285Z,96.60
2018-03-11T22:43:20.741Z,96.70
2018-03-11T22:45:48.221Z,96.70
2018-03-11T22:48:16.447Z,96.60
2018-03-11T22:50:43.929Z,96.60
2018-03-11T22:53:11.410Z,96.60
2018-03-11T22:55:38.895Z,97.00
2018-03-11T22:58:06.394Z,96.70
2018-03-11T23:00:33.886Z,96.50
2018-03-11T23:03:01.384Z,96.80
2018-03-11T23:05:28.850Z,96.60
2018-03-11T23:07:56.323Z,96.40
2018-03-11T23:10:23.778Z,96.30
2018-03-11T23:12:51.258Z,96.30
2018-03-11T23:15:18.734Z,96.40
2018-03-11T23:17:47.017Z,96.30
2018-03-11T23:20:15.367Z,96.30
2018-03-11T23:22:42.850Z,96.30
2018-03-11T23:25:11.057Z,96.20
2018-03-11T23:27:38.563Z,96.20
2018-03-11T23:30:06.112Z,96.20
2018-03-11T23:32:33.577Z,96.10
2018-03-11T23:35:01.048Z,96.10
2018-03-11T23:37:29.277Z,96.20
2018-03-11T23:39:56.746Z,96.20
2018-03-11T23:42:24.242Z,96.10
2018-03-11T23:44:51.730Z,96.10
2018-03-11T23:47:19.209Z,96.20
2018-03-11T23:49:46.685Z,96.20
2018-03-11T23:52:14.173Z,96.30
2018-03-11T23:54:42.389Z,96.10
2018-03-11T23:57:09.952Z,96.20
2018-03-11T23:59:37.398Z,96.30
